Time;durP1;ratioP1;P1;durP2;ratioP2;P2;SDS_P1;SDS_P2;PMS_P1;PMS_P2;Temp;Humidity;BMP_temperature;BMP_pressure;BME280_temperature;BME280_humidity;BME280_pressure;Samples;Min_cycle;Max_cycle;Signal;HPM_P1;HPM_P2
2021/12/21 00:01:33;;;;;;;34.95;20.77;;;4.50;99.90;;;;;;5033300;28;20022;-72
2021/12/21 00:03:59;;;;;;;31.92;18.73;;;4.60;99.90;;;;;;5033263;28;20029;-73
2021/12/21 00:06:24;;;;;;;31.60;19.45;;;4.60;99.90;;;;;;5033560;28;20096;-72
2021/12/21 00:08:50;;;;;;;31.52;19.45;;;4.70;99.90;;;;;;5035609;28;20509;-74
2021/12/21 00:11:16;;;;;;;30.88;17.52;;;4.50;99.90;;;;;;5036897;28;20026;-74
2021/12/21 00:18:36;;;;;;;32.38;19.30;;;4.30;99.90;;;;;;5037192;28;20030;-72
2021/12/21 00:23:42;;;;;;;32.67;18.52;;;4.30;99.90;;;;;;5037406;28;20038;-72
2021/12/21 00:26:13;;;;;;;36.03;19.40;;;4.30;99.90;;;;;;5035097;28;20091;-73
2021/12/21 00:28:50;;;;;;;32.03;18.50;;;4.40;99.90;;;;;;5036655;28;20124;-72
2021/12/21 00:31:16;;;;;;;33.97;19.25;;;4.30;99.90;;;;;;5037097;28;20072;-72
2021/12/21 00:33:45;;;;;;;30.77;17.38;;;4.30;99.90;;;;;;5036444;28;20026;-72
2021/12/21 00:36:11;;;;;;;32.60;18.30;;;4.30;99.90;;;;;;5035146;28;20032;-74
2021/12/21 00:38:37;;;;;;;30.70;18.88;;;4.30;99.90;;;;;;5036232;28;20029;-72
2021/12/21 00:41:03;;;;;;;31.98;18.52;;;4.40;99.90;;;;;;5036329;28;20018;-73
2021/12/21 00:43:29;;;;;;;32.20;18.23;;;4.40;99.90;;;;;;5036523;28;20040;-75
2021/12/21 00:45:55;;;;;;;28.42;17.02;;;4.30;99.90;;;;;;5036234;28;20025;-72
2021/12/21 00:48:27;;;;;;;32.80;18.48;;;4.40;99.90;;;;;;5034852;28;20029;-72
2021/12/21 00:50:52;;;;;;;29.63;16.48;;;4.40;99.90;;;;;;5034602;28;20079;-73
2021/12/21 00:53:18;;;;;;;26.83;16.90;;;4.40;99.90;;;;;;5036125;28;20029;-73
2021/12/21 00:55:44;;;;;;;27.95;16.73;;;4.40;99.90;;;;;;5036075;28;20025;-74
2021/12/21 00:58:09;;;;;;;28.27;16.65;;;4.50;99.90;;;;;;5036466;28;20037;-73
2021/12/21 01:00:35;;;;;;;28.15;17.08;;;4.40;99.90;;;;;;5035955;28;20025;-72
2021/12/21 01:03:08;;;;;;;30.25;17.25;;;4.40;99.90;;;;;;5035886;28;20375;-73
2021/12/21 01:08:24;;;;;;;29.10;17.48;;;4.60;99.90;;;;;;5038776;28;20041;-74
2021/12/21 01:16:03;;;;;;;27.77;16.17;;;4.40;99.90;;;;;;5035961;28;20109;-74
2021/12/21 01:18:41;;;;;;;29.15;16.80;;;4.40;99.90;;;;;;5034021;28;20030;-72
2021/12/21 01:21:15;;;;;;;27.38;15.95;;;4.40;99.90;;;;;;5035295;28;20096;-71
2021/12/21 01:49:37;;;;;;;24.85;14.02;;;4.30;99.90;;;;;;5035361;28;20056;-73
2021/12/21 01:52:07;;;;;;;24.70;13.20;;;4.30;99.90;;;;;;5035357;28;20033;-72
2021/12/21 01:54:34;;;;;;;25.88;13.45;;;4.30;99.90;;;;;;5035633;28;20079;-74
2021/12/21 01:57:00;;;;;;;26.10;13.88;;;4.40;99.90;;;;;;5035197;28;20072;-74
2021/12/21 01:59:26;;;;;;;25.80;15.00;;;4.40;99.90;;;;;;5034780;28;20029;-72
2021/12/21 02:01:51;;;;;;;25.17;13.27;;;4.30;99.90;;;;;;5034839;28;20119;-74
2021/12/21 02:04:17;;;;;;;23.83;12.95;;;4.30;99.90;;;;;;5034757;28;20478;-73
2021/12/21 02:06:44;;;;;;;23.23;12.55;;;4.30;99.90;;;;;;5034754;28;20026;-74
2021/12/21 02:09:10;;;;;;;21.77;12.85;;;4.30;99.90;;;;;;5034968;28;20022;-75
2021/12/21 02:11:36;;;;;;;25.23;13.93;;;4.30;99.90;;;;;;5034650;28;20021;-72
2021/12/21 02:14:02;;;;;;;24.83;12.95;;;4.40;99.90;;;;;;5035112;28;20066;-73
2021/12/21 02:16:44;;;;;;;22.17;13.77;;;4.40;99.90;;;;;;5034829;28;20053;-73
2021/12/21 02:21:52;;;;;;;25.35;12.60;;;4.40;99.90;;;;;;5034226;28;20405;-74
2021/12/21 02:24:23;;;;;;;26.08;13.90;;;4.50;99.90;;;;;;5034655;28;20021;-75
2021/12/21 02:27:06;;;;;;;21.83;13.10;;;4.40;99.90;;;;;;5032821;28;20521;-75
2021/12/21 02:29:35;;;;;;;22.08;12.20;;;4.40;99.90;;;;;;5032643;28;20057;-74
2021/12/21 02:32:02;;;;;;;23.35;13.30;;;4.40;99.90;;;;;;5033316;28;20024;-73
2021/12/21 02:34:27;;;;;;;22.25;13.57;;;4.40;99.90;;;;;;5034517;28;20187;-73
2021/12/21 02:36:55;;;;;;;25.65;13.57;;;4.50;99.90;;;;;;5034455;28;20022;-74
2021/12/21 02:39:23;;;;;;;23.38;13.15;;;4.50;99.90;;;;;;5034059;28;20484;-74
2021/12/21 02:41:49;;;;;;;23.23;12.55;;;4.60;99.90;;;;;;5034042;28;20084;-75
2021/12/21 02:44:16;;;;;;;25.70;13.73;;;4.50;99.90;;;;;;5034032;28;20494;-75
2021/12/21 02:46:42;;;;;;;21.27;13.32;;;4.50;99.90;;;;;;5033992;28;20022;-74
2021/12/21 02:49:10;;;;;;;26.30;13.20;;;4.50;99.90;;;;;;5033963;28;20030;-74
2021/12/21 02:51:40;;;;;;;24.65;13.35;;;4.60;99.90;;;;;;5033862;28;20025;-75
2021/12/21 02:54:08;;;;;;;24.80;13.00;;;4.60;99.90;;;;;;5034275;28;20117;-74
2021/12/21 02:56:33;;;;;;;21.48;12.10;;;4.60;99.90;;;;;;5034090;28;20028;-73
2021/12/21 02:58:59;;;;;;;24.77;13.95;;;4.70;99.90;;;;;;5033949;28;20029;-73
2021/12/21 03:01:25;;;;;;;22.95;12.93;;;4.70;99.90;;;;;;5033695;28;20097;-74
2021/12/21 03:03:52;;;;;;;21.60;12.15;;;4.60;99.90;;;;;;5033966;28;20394;-74
2021/12/21 03:09:15;;;;;;;21.95;13.23;;;4.70;99.90;;;;;;5042678;28;20375;-74
2021/12/21 03:11:50;;;;;;;25.42;13.70;;;4.50;99.90;;;;;;5033629;28;20013;-73
2021/12/21 03:14:16;;;;;;;23.50;13.20;;;4.50;99.90;;;;;;5033836;28;20509;-75
2021/12/21 03:16:42;;;;;;;25.55;13.98;;;4.30;99.90;;;;;;5033773;28;20049;-72
2021/12/21 03:19:10;;;;;;;22.35;11.80;;;4.40;99.90;;;;;;5033367;28;20037;-73
2021/12/21 03:21:37;;;;;;;25.42;13.27;;;4.50;99.90;;;;;;5033466;28;20139;-72
2021/12/21 03:24:04;;;;;;;24.38;12.98;;;4.30;99.90;;;;;;5033595;28;20021;-72
2021/12/21 03:26:30;;;;;;;23.83;13.38;;;4.30;99.90;;;;;;5033377;28;20017;-72
2021/12/21 03:28:57;;;;;;;24.85;14.32;;;4.50;99.90;;;;;;5033166;28;20127;-73
2021/12/21 03:31:23;;;;;;;25.88;14.15;;;4.50;99.90;;;;;;5033603;28;20620;-75
2021/12/21 03:33:50;;;;;;;23.08;13.52;;;4.60;99.90;;;;;;5033290;28;20033;-73
2021/12/21 03:36:16;;;;;;;22.83;12.40;;;4.50;99.90;;;;;;5033258;28;20022;-72
2021/12/21 03:38:54;;;;;;;25.83;13.25;;;4.50;99.90;;;;;;5033497;28;20107;-72
2021/12/21 03:41:20;;;;;;;28.80;15.48;;;4.30;99.90;;;;;;5033536;28;20013;-73
2021/12/21 03:43:47;;;;;;;25.05;13.45;;;4.20;99.90;;;;;;5038099;28;20059;-74
2021/12/21 03:46:15;;;;;;;28.17;15.82;;;4.00;99.90;;;;;;5039814;28;20017;-72
2021/12/21 03:48:46;;;;;;;24.88;14.45;;;4.10;99.90;;;;;;5039785;28;20029;-72
2021/12/21 03:51:14;;;;;;;24.95;13.98;;;4.10;99.90;;;;;;5040332;28;20029;-72
2021/12/21 03:53:41;;;;;;;26.35;14.98;;;4.00;99.90;;;;;;5039672;28;20036;-74
2021/12/21 03:56:36;;;;;;;29.38;15.95;;;3.80;99.90;;;;;;5039962;28;20100;-72
2021/12/21 03:59:01;;;;;;;24.08;14.15;;;3.70;99.90;;;;;;5039603;28;20025;-74
2021/12/21 04:01:27;;;;;;;27.33;15.40;;;3.90;99.90;;;;;;5039656;28;20021;-72
2021/12/21 04:03:53;;;;;;;27.48;15.20;;;3.90;99.90;;;;;;5039679;28;20393;-73
2021/12/21 04:06:18;;;;;;;26.13;14.82;;;3.90;99.90;;;;;;5039628;28;20040;-73
2021/12/21 04:08:44;;;;;;;30.30;14.90;;;3.80;99.90;;;;;;5039825;28;20026;-72
2021/12/21 04:11:10;;;;;;;28.48;15.10;;;3.70;99.90;;;;;;5039815;28;20091;-73
2021/12/21 04:13:35;;;;;;;27.52;15.27;;;3.80;99.90;;;;;;5039804;28;20036;-74
2021/12/21 04:16:04;;;;;;;27.23;15.18;;;3.80;99.90;;;;;;5039792;28;20029;-74
2021/12/21 04:18:34;;;;;;;29.92;16.17;;;3.70;99.90;;;;;;5038118;28;20083;-73
2021/12/21 04:21:00;;;;;;;27.15;13.90;;;3.70;99.90;;;;;;5039813;28;20104;-74
2021/12/21 04:23:25;;;;;;;29.67;15.25;;;3.80;99.90;;;;;;5039378;28;20053;-72
2021/12/21 04:25:51;;;;;;;28.52;14.90;;;3.90;99.90;;;;;;5039649;28;20032;-72
2021/12/21 04:28:17;;;;;;;24.92;13.77;;;4.00;99.90;;;;;;5039202;28;20053;-73
2021/12/21 04:30:42;;;;;;;28.42;15.85;;;4.10;99.90;;;;;;5038148;28;20033;-74
2021/12/21 04:33:08;;;;;;;26.98;13.77;;;4.10;99.90;;;;;;5039380;28;20037;-74
2021/12/21 04:35:33;;;;;;;27.15;13.00;;;4.20;99.90;;;;;;5039317;28;20471;-72
2021/12/21 04:38:12;;;;;;;25.10;13.27;;;4.30;99.90;;;;;;5039485;28;20029;-72
2021/12/21 04:40:42;;;;;;;24.77;13.85;;;4.30;99.90;;;;;;5039844;28;20024;-72
2021/12/21 04:43:08;;;;;;;25.52;13.23;;;4.30;99.90;;;;;;5039604;28;20474;-73
2021/12/21 04:45:34;;;;;;;23.15;12.50;;;4.20;99.90;;;;;;5039268;28;20060;-72
2021/12/21 04:47:59;;;;;;;24.10;14.52;;;4.20;99.90;;;;;;5039182;28;20074;-74
2021/12/21 04:50:25;;;;;;;26.58;14.65;;;4.20;99.90;;;;;;5039194;28;20014;-75
2021/12/21 04:52:51;;;;;;;25.45;14.00;;;4.20;99.90;;;;;;5039224;28;20436;-74
2021/12/21 04:55:17;;;;;;;27.65;14.93;;;4.20;99.90;;;;;;5036340;28;20070;-71
2021/12/21 04:57:43;;;;;;;24.23;13.82;;;4.10;99.90;;;;;;5036333;28;20104;-73
2021/12/21 05:00:12;;;;;;;25.42;14.50;;;4.00;99.90;;;;;;5035918;28;20025;-72
2021/12/21 05:02:39;;;;;;;24.80;14.15;;;3.90;99.90;;;;;;5036535;28;20022;-74
2021/12/21 05:05:05;;;;;;;29.25;15.50;;;3.80;99.90;;;;;;5035918;28;20104;-74
2021/12/21 05:07:33;;;;;;;27.13;13.43;;;3.80;99.90;;;;;;5035850;28;20025;-73
2021/12/21 05:10:01;;;;;;;28.55;14.63;;;3.80;99.90;;;;;;5035822;28;20091;-73
2021/12/21 05:12:27;;;;;;;26.73;14.48;;;3.60;99.90;;;;;;5035765;28;20095;-73
2021/12/21 05:14:54;;;;;;;28.75;15.32;;;3.50;99.90;;;;;;5035732;28;20068;-73
2021/12/21 05:17:20;;;;;;;31.17;15.15;;;3.20;99.90;;;;;;5035695;28;20029;-71
2021/12/21 05:19:46;;;;;;;26.30;14.65;;;3.10;99.90;;;;;;5035599;28;20029;-74
2021/12/21 05:22:12;;;;;;;27.08;15.20;;;2.70;99.90;;;;;;5035916;28;20382;-73
2021/12/21 05:24:39;;;;;;;28.50;15.30;;;2.60;99.90;;;;;;5035456;28;20025;-73
2021/12/21 05:27:05;;;;;;;24.02;14.23;;;2.80;99.90;;;;;;5035452;28;20029;-73
2021/12/21 05:29:32;;;;;;;26.02;15.32;;;2.90;99.90;;;;;;5035011;28;20098;-74
2021/12/21 05:32:01;;;;;;;28.35;15.77;;;2.90;99.90;;;;;;5035496;28;20504;-74
2021/12/21 05:34:27;;;;;;;30.23;16.02;;;2.90;99.90;;;;;;5035424;28;20053;-72
2021/12/21 05:36:53;;;;;;;29.10;15.10;;;3.10;99.90;;;;;;5035391;28;20036;-72
2021/12/21 05:39:23;;;;;;;30.50;15.68;;;3.10;99.90;;;;;;5035206;28;20505;-74
2021/12/21 05:41:51;;;;;;;29.17;15.15;;;3.10;99.90;;;;;;5035544;28;20093;-74
2021/12/21 05:44:19;;;;;;;31.92;16.02;;;3.10;99.90;;;;;;5035164;28;20103;-74
2021/12/21 05:46:46;;;;;;;26.15;15.30;;;3.20;99.90;;;;;;5035136;28;20152;-72
2021/12/21 05:49:12;;;;;;;27.92;15.52;;;3.40;99.90;;;;;;5035059;28;20029;-74
2021/12/21 05:51:38;;;;;;;32.40;16.70;;;3.40;99.90;;;;;;5035039;28;20053;-74
2021/12/21 05:54:04;;;;;;;33.72;16.45;;;3.40;99.90;;;;;;5034941;28;20417;-73
2021/12/21 05:56:30;;;;;;;31.92;16.60;;;3.30;99.90;;;;;;5034905;28;20033;-73
2021/12/21 05:58:55;;;;;;;30.13;16.20;;;3.30;99.90;;;;;;5034843;28;20072;-74
2021/12/21 06:01:21;;;;;;;36.92;21.13;;;3.20;99.90;;;;;;5034903;28;20144;-73
2021/12/21 06:03:47;;;;;;;28.40;16.10;;;3.00;99.90;;;;;;5034794;28;20383;-73
2021/12/21 06:06:15;;;;;;;30.70;15.88;;;3.00;99.90;;;;;;5034571;28;20025;-74
2021/12/21 06:08:43;;;;;;;33.65;18.40;;;3.10;99.90;;;;;;5034674;28;20501;-72
2021/12/21 06:11:09;;;;;;;29.25;16.17;;;3.20;99.90;;;;;;5033388;28;20203;-73
2021/12/21 06:25:53;;;;;;;26.33;14.80;;;3.20;99.90;;;;;;5034378;28;20128;-72
2021/12/21 06:27:39;;;;;;;26.17;14.18;;;3.10;99.90;;;;;;5037612;28;20041;-74
2021/12/21 06:30:05;;;;;;;26.90;14.85;;;3.20;99.90;;;;;;5034604;28;20080;-72
2021/12/21 06:32:31;;;;;;;30.10;16.35;;;3.10;99.90;;;;;;5034507;28;20032;-75
2021/12/21 06:34:57;;;;;;;30.05;16.45;;;3.00;99.90;;;;;;5034199;28;20108;-74
2021/12/21 06:37:23;;;;;;;31.58;16.45;;;3.00;99.90;;;;;;5034230;28;20104;-74
2021/12/21 06:39:48;;;;;;;29.05;15.88;;;2.90;99.90;;;;;;5034300;28;20478;-74
2021/12/21 06:42:15;;;;;;;32.10;16.05;;;2.70;99.90;;;;;;5034334;28;20139;-74
2021/12/21 06:44:43;;;;;;;29.00;16.88;;;2.80;99.90;;;;;;5034583;28;20071;-74
2021/12/21 06:52:40;;;;;;;30.25;16.02;;;2.80;99.90;;;;;;5033957;28;20036;-74
2021/12/21 06:55:07;;;;;;;28.95;15.18;;;2.80;99.90;;;;;;5033869;28;20033;-72
2021/12/21 06:57:34;;;;;;;32.45;16.35;;;2.70;99.90;;;;;;5034345;28;20033;-74
2021/12/21 07:00:00;;;;;;;34.63;16.40;;;2.50;99.90;;;;;;5033961;28;20076;-73
2021/12/21 07:02:26;;;;;;;29.92;15.38;;;2.40;99.90;;;;;;5033731;28;20021;-72
2021/12/21 07:04:52;;;;;;;31.65;16.80;;;2.50;99.90;;;;;;5033597;28;20107;-74
2021/12/21 07:07:18;;;;;;;30.88;16.08;;;2.50;99.90;;;;;;5033959;28;20499;-74
2021/12/21 07:09:47;;;;;;;35.42;17.95;;;2.60;99.90;;;;;;5033651;28;20057;-73
2021/12/21 07:18:09;;;;;;;31.77;18.83;;;3.00;99.90;;;;;;5033042;28;20053;-75
2021/12/21 07:20:34;;;;;;;31.75;18.90;;;3.00;99.90;;;;;;5033503;28;20481;-71
2021/12/21 07:23:00;;;;;;;29.02;16.25;;;3.10;99.90;;;;;;5033454;28;20029;-73
2021/12/21 07:25:27;;;;;;;33.08;17.13;;;3.30;99.90;;;;;;5033352;28;20028;-73
2021/12/21 07:27:53;;;;;;;29.67;16.73;;;3.30;99.90;;;;;;5033133;28;20037;-73
2021/12/21 07:30:19;;;;;;;29.60;15.98;;;3.30;99.90;;;;;;5033328;28;20060;-72
2021/12/21 07:32:45;;;;;;;31.83;16.38;;;3.30;99.90;;;;;;5032079;28;20067;-73
2021/12/21 07:35:10;;;;;;;28.13;15.65;;;3.30;99.90;;;;;;5033305;28;20022;-72
2021/12/21 07:37:36;;;;;;;35.08;18.40;;;3.40;99.90;;;;;;5033794;28;20036;-73
2021/12/21 07:40:06;;;;;;;33.72;17.27;;;3.40;99.90;;;;;;5033196;28;20394;-73
2021/12/21 07:42:31;;;;;;;32.03;16.65;;;3.40;99.90;;;;;;5031912;28;20401;-74
2021/12/21 07:44:58;;;;;;;32.38;17.67;;;3.40;99.90;;;;;;5033206;28;20033;-72
2021/12/21 07:47:24;;;;;;;31.63;16.35;;;3.30;99.90;;;;;;5033158;28;20113;-74
2021/12/21 07:49:50;;;;;;;34.35;17.52;;;3.10;99.90;;;;;;5033685;28;20057;-74
2021/12/21 07:52:17;;;;;;;32.10;15.93;;;3.00;99.90;;;;;;5033667;28;20036;-73
2021/12/21 07:54:43;;;;;;;30.45;16.15;;;2.80;99.90;;;;;;5033383;28;20460;-73
2021/12/21 07:57:09;;;;;;;39.85;18.38;;;2.60;99.90;;;;;;5031764;28;20494;-72
2021/12/21 07:59:36;;;;;;;31.55;16.05;;;2.40;99.90;;;;;;5032962;28;20084;-74
2021/12/21 08:02:02;;;;;;;27.15;14.75;;;2.40;99.90;;;;;;5033261;28;20486;-74
2021/12/21 08:04:28;;;;;;;30.90;16.40;;;2.50;99.90;;;;;;5033050;28;20028;-74
2021/12/21 08:07:03;;;;;;;29.77;16.23;;;2.60;99.90;;;;;;5033016;28;20086;-74
2021/12/21 08:09:36;;;;;;;31.30;14.85;;;2.80;99.90;;;;;;5031427;28;20029;-72
2021/12/21 08:12:16;;;;;;;31.88;16.38;;;2.90;99.90;;;;;;5033226;28;20045;-71
2021/12/21 08:14:47;;;;;;;38.88;21.70;;;3.10;99.90;;;;;;5042661;28;20025;-79
2021/12/21 08:17:14;;;;;;;32.60;18.80;;;3.10;99.90;;;;;;5052778;28;20111;-78
2021/12/21 08:19:39;;;;;;;26.35;15.65;;;3.20;99.90;;;;;;5050774;28;20040;-79
2021/12/21 08:22:05;;;;;;;29.02;15.50;;;3.10;99.90;;;;;;5052812;28;20025;-74
2021/12/21 08:24:31;;;;;;;28.10;14.80;;;3.00;99.90;;;;;;5045679;28;20028;-76
2021/12/21 08:27:04;;;;;;;27.52;16.05;;;3.00;99.90;;;;;;5041298;28;20032;-75
2021/12/21 08:29:30;;;;;;;28.65;15.55;;;3.00;99.90;;;;;;5036801;28;20520;-81
2021/12/21 08:31:56;;;;;;;30.92;16.42;;;3.10;99.90;;;;;;5036587;28;20021;-78
2021/12/21 08:34:22;;;;;;;27.73;16.17;;;3.20;99.90;;;;;;5036677;28;20025;-77
2021/12/21 08:36:49;;;;;;;34.10;16.90;;;3.20;99.90;;;;;;5048406;28;20036;-78
2021/12/21 08:39:16;;;;;;;30.30;16.45;;;3.20;99.90;;;;;;5036553;28;20029;-75
2021/12/21 08:41:43;;;;;;;32.35;16.23;;;3.00;99.90;;;;;;5050854;28;20028;-75
2021/12/21 08:44:11;;;;;;;30.38;15.90;;;3.00;99.90;;;;;;5056241;28;20060;-78
2021/12/21 08:46:39;;;;;;;34.17;18.65;;;3.10;99.90;;;;;;5056265;28;20151;-75
2021/12/21 08:49:04;;;;;;;32.50;18.02;;;3.20;99.90;;;;;;5046428;28;20021;-75
2021/12/21 08:51:30;;;;;;;30.27;17.15;;;3.20;99.90;;;;;;5047725;28;20401;-73
2021/12/21 08:53:56;;;;;;;33.25;18.42;;;3.30;99.90;;;;;;5035086;28;20034;-73
2021/12/21 08:56:22;;;;;;;29.98;16.48;;;3.30;99.90;;;;;;5037371;28;20107;-74
2021/12/21 08:58:47;;;;;;;31.35;16.80;;;3.20;99.90;;;;;;5034720;28;20466;-73
2021/12/21 09:01:13;;;;;;;34.03;17.48;;;3.20;99.90;;;;;;5036958;28;20022;-75
2021/12/21 09:03:39;;;;;;;35.88;17.75;;;3.30;99.90;;;;;;5041339;28;20108;-75
2021/12/21 09:06:04;;;;;;;32.38;17.40;;;3.30;99.90;;;;;;5047375;28;20022;-73
2021/12/21 09:08:30;;;;;;;30.65;17.67;;;3.40;99.90;;;;;;5046747;28;20485;-77
2021/12/21 09:11:02;;;;;;;31.00;16.98;;;3.40;99.90;;;;;;5035882;28;20490;-77
2021/12/21 09:13:29;;;;;;;35.08;18.52;;;3.50;99.90;;;;;;5046518;28;20041;-74
2021/12/21 09:15:55;;;;;;;37.40;22.10;;;3.50;99.90;;;;;;5036490;28;20446;-74
2021/12/21 09:18:21;;;;;;;37.25;22.70;;;3.40;99.90;;;;;;5044640;28;20079;-73
2021/12/21 09:20:47;;;;;;;41.95;22.23;;;3.40;99.90;;;;;;5054328;28;20071;-77
2021/12/21 09:23:13;;;;;;;38.70;22.40;;;3.30;99.90;;;;;;5055709;28;20434;-78
2021/12/21 09:25:39;;;;;;;38.85;21.77;;;3.20;99.90;;;;;;5055471;28;20045;-74
2021/12/21 09:28:05;;;;;;;45.28;18.60;;;2.90;99.90;;;;;;5052003;28;20087;-73
2021/12/21 09:30:30;;;;;;;33.60;17.45;;;2.90;99.90;;;;;;5055343;28;20021;-82
2021/12/21 09:32:59;;;;;;;34.08;18.70;;;3.00;99.90;;;;;;5055620;28;20045;-74
2021/12/21 09:35:25;;;;;;;33.55;18.33;;;3.20;99.90;;;;;;5052333;28;20565;-76
2021/12/21 09:37:52;;;;;;;32.47;16.88;;;3.20;99.90;;;;;;5053445;28;20076;-76
2021/12/21 09:40:21;;;;;;;29.73;16.35;;;3.30;99.90;;;;;;5047606;28;20021;-77
2021/12/21 09:42:48;;;;;;;30.83;15.82;;;3.50;99.90;;;;;;5048840;28;20405;-78
2021/12/21 09:45:14;;;;;;;25.00;14.70;;;3.50;99.90;;;;;;5043594;28;20473;-78
2021/12/21 09:47:40;;;;;;;31.25;16.08;;;3.50;99.90;;;;;;5054623;28;20461;-79
2021/12/21 09:50:08;;;;;;;29.10;15.35;;;3.40;99.90;;;;;;5036753;28;20074;-79
2021/12/21 09:52:35;;;;;;;32.28;16.30;;;3.50;99.90;;;;;;5035936;28;20026;-81
2021/12/21 09:55:04;;;;;;;31.67;15.88;;;3.50;99.90;;;;;;5035534;28;20030;-78
2021/12/21 09:57:30;;;;;;;34.05;16.42;;;3.60;99.90;;;;;;5054817;28;20033;-80
2021/12/21 09:59:56;;;;;;;33.95;17.98;;;3.60;99.90;;;;;;5043283;28;20474;-73
2021/12/21 10:02:26;;;;;;;27.35;15.45;;;3.60;99.90;;;;;;5046106;28;20497;-75
2021/12/21 10:04:58;;;;;;;33.97;18.25;;;3.60;99.90;;;;;;5047695;28;20028;-76
2021/12/21 10:07:25;;;;;;;30.42;16.80;;;3.60;99.90;;;;;;5046997;28;20032;-73
2021/12/21 10:10:07;;;;;;;26.77;15.82;;;3.70;99.90;;;;;;5055235;28;20025;-74
2021/12/21 10:12:39;;;;;;;27.25;15.85;;;3.70;99.90;;;;;;5040341;28;20048;-75
2021/12/21 10:15:10;;;;;;;25.52;14.40;;;3.80;99.90;;;;;;5034661;28;20021;-76
2021/12/21 10:17:36;;;;;;;28.80;15.80;;;3.90;99.90;;;;;;5034301;28;20060;-76
2021/12/21 10:20:08;;;;;;;31.02;15.93;;;4.10;99.90;;;;;;5034030;28;20478;-74
2021/12/21 10:22:34;;;;;;;26.02;13.80;;;4.10;99.90;;;;;;5034188;28;20088;-74
2021/12/21 10:25:00;;;;;;;30.48;16.33;;;4.10;99.90;;;;;;5034603;28;20017;-73
2021/12/21 10:27:27;;;;;;;26.75;14.10;;;4.20;99.90;;;;;;5054369;28;20035;-73
2021/12/21 10:29:57;;;;;;;25.88;14.50;;;4.30;99.90;;;;;;5052409;28;20040;-77
2021/12/21 10:32:25;;;;;;;30.45;15.07;;;4.30;99.90;;;;;;5054592;28;20493;-76
2021/12/21 10:34:58;;;;;;;26.70;15.07;;;4.30;99.90;;;;;;5054252;28;20099;-74
2021/12/21 10:37:30;;;;;;;26.55;15.23;;;4.30;99.90;;;;;;5033805;28;20025;-75
2021/12/21 10:40:07;;;;;;;26.30;13.85;;;4.30;99.90;;;;;;5033533;28;20030;-75
2021/12/21 10:42:44;;;;;;;24.70;13.63;;;4.40;99.90;;;;;;5034007;28;20026;-75
2021/12/21 10:45:10;;;;;;;29.48;14.20;;;4.40;99.90;;;;;;5034509;28;20026;-76
2021/12/21 10:47:37;;;;;;;24.55;14.23;;;4.50;99.90;;;;;;5034306;28;20025;-75
2021/12/21 10:50:05;;;;;;;25.48;14.43;;;4.50;99.90;;;;;;5033464;28;20079;-72
2021/12/21 10:52:31;;;;;;;28.17;14.07;;;4.70;99.90;;;;;;5040559;28;20564;-72
2021/12/21 10:54:57;;;;;;;27.33;12.63;;;4.70;99.90;;;;;;5051493;28;20025;-73
2021/12/21 10:57:32;;;;;;;24.92;13.00;;;4.70;99.90;;;;;;5053779;28;20025;-74
2021/12/21 11:00:01;;;;;;;25.27;13.13;;;4.70;99.90;;;;;;5054266;28;20029;-74
2021/12/21 11:02:32;;;;;;;24.50;12.75;;;4.80;99.90;;;;;;5040797;28;20092;-73
2021/12/21 11:05:20;;;;;;;25.80;13.68;;;4.80;99.90;;;;;;5034084;28;20022;-75
2021/12/21 11:08:01;;;;;;;23.08;12.77;;;4.80;99.90;;;;;;5042864;28;20024;-74
2021/12/21 11:10:30;;;;;;;;;;;4.80;99.90;;;;;;5054021;28;20374;-75
2021/12/21 11:13:08;;;;;;;21.85;11.38;;;4.80;99.90;;;;;;5050511;28;20301;-74
2021/12/21 11:15:38;;;;;;;24.52;14.02;;;4.90;99.90;;;;;;5041979;28;20060;-74
2021/12/21 11:18:06;;;;;;;25.50;13.90;;;4.90;99.90;;;;;;5053494;28;20108;-76
2021/12/21 11:20:35;;;;;;;23.38;13.65;;;4.90;99.90;;;;;;5043614;28;20060;-75
2021/12/21 11:23:01;;;;;;;23.90;12.05;;;4.90;99.90;;;;;;5034933;28;20049;-77
2021/12/21 11:25:27;;;;;;;23.23;13.57;;;4.90;99.90;;;;;;5033332;28;20036;-75
2021/12/21 11:27:53;;;;;;;24.33;13.70;;;4.90;99.90;;;;;;5044200;28;20041;-75
2021/12/21 11:30:26;;;;;;;18.75;11.48;;;4.90;99.90;;;;;;5040636;28;20032;-74
2021/12/21 11:32:53;;;;;;;23.08;13.13;;;4.80;99.90;;;;;;5053610;28;20029;-74
2021/12/21 11:37:55;;;;;;;23.85;12.23;;;4.90;99.90;;;;;;5033260;28;20091;-73
2021/12/21 11:40:29;;;;;;;24.05;13.77;;;4.80;99.90;;;;;;5032829;28;20025;-72
2021/12/21 11:43:21;;;;;;;20.50;11.68;;;4.80;99.90;;;;;;5032450;28;20109;-71
2021/12/21 11:45:49;;;;;;;24.77;12.10;;;4.90;99.90;;;;;;5033184;28;20470;-72
2021/12/21 11:48:15;;;;;;;24.13;11.98;;;4.90;99.90;;;;;;5033174;28;20428;-71
2021/12/21 11:50:45;;;;;;;19.88;11.07;;;4.90;99.90;;;;;;5031917;28;20072;-71
2021/12/21 11:53:13;;;;;;;24.75;12.10;;;5.00;99.90;;;;;;5033054;28;20017;-72
2021/12/21 11:55:42;;;;;;;23.45;13.43;;;5.00;99.90;;;;;;5033126;28;20032;-73
2021/12/21 11:58:16;;;;;;;20.85;13.05;;;5.00;99.90;;;;;;5033628;28;20026;-71
2021/12/21 12:00:58;;;;;;;27.92;14.27;;;5.10;99.90;;;;;;5033105;28;20506;-72
2021/12/21 12:03:26;;;;;;;21.23;12.27;;;5.20;99.90;;;;;;5033986;28;20025;-72
2021/12/21 12:05:58;;;;;;;21.45;11.45;;;5.20;99.90;;;;;;5037063;28;20410;-71
2021/12/21 12:08:26;;;;;;;22.10;12.38;;;5.20;99.90;;;;;;5037047;28;20105;-72
2021/12/21 12:10:58;;;;;;;23.33;12.10;;;5.20;99.90;;;;;;5036922;28;20021;-71
2021/12/21 12:13:34;;;;;;;20.73;11.40;;;5.30;99.90;;;;;;5036923;28;20390;-72
2021/12/21 12:16:14;;;;;;;19.10;11.00;;;5.40;99.90;;;;;;5036847;28;20018;-72
2021/12/21 12:18:50;;;;;;;22.25;11.73;;;5.40;99.90;;;;;;5037352;28;20021;-72
2021/12/21 12:21:28;;;;;;;20.48;11.98;;;5.30;99.90;;;;;;5037336;28;20021;-72
2021/12/21 12:24:00;;;;;;;21.17;12.23;;;5.40;99.90;;;;;;5036676;28;20022;-72
2021/12/21 12:26:26;;;;;;;19.95;11.88;;;5.50;99.90;;;;;;5036653;28;20026;-72
2021/12/21 12:28:54;;;;;;;20.35;11.38;;;5.50;99.90;;;;;;5036400;28;20106;-72
2021/12/21 12:31:34;;;;;;;22.23;12.25;;;5.60;99.90;;;;;;5035544;28;20462;-71
2021/12/21 12:34:00;;;;;;;22.35;11.95;;;5.60;99.90;;;;;;5036908;28;20018;-71
2021/12/21 12:36:33;;;;;;;20.58;12.23;;;5.60;99.90;;;;;;5036756;28;20428;-72
2021/12/21 12:38:59;;;;;;;23.45;12.52;;;5.60;99.90;;;;;;5036954;28;20026;-72
2021/12/21 12:41:25;;;;;;;23.38;12.15;;;5.70;99.90;;;;;;5036458;28;20028;-73
2021/12/21 12:43:50;;;;;;;19.55;11.80;;;5.70;99.90;;;;;;5036418;28;20517;-73
2021/12/21 12:46:25;;;;;;;19.67;11.30;;;5.80;99.90;;;;;;5036315;28;20033;-72
2021/12/21 12:48:51;;;;;;;20.73;11.45;;;5.80;99.90;;;;;;5036249;28;20059;-72
2021/12/21 12:51:43;;;;;;;19.75;10.93;;;5.90;99.90;;;;;;5036229;28;20108;-71
2021/12/21 12:54:21;;;;;;;20.52;12.27;;;5.80;99.90;;;;;;5036149;28;20037;-72
2021/12/21 12:56:48;;;;;;;22.33;11.98;;;5.80;99.90;;;;;;5036123;28;20478;-72
2021/12/21 12:59:14;;;;;;;19.15;12.35;;;5.80;99.90;;;;;;5036281;28;20026;-72
2021/12/21 13:01:42;;;;;;;18.95;12.10;;;5.80;99.90;;;;;;5034746;28;20383;-72
2021/12/21 13:04:11;;;;;;;24.30;12.07;;;5.80;99.90;;;;;;5035919;28;20033;-72
2021/12/21 13:06:38;;;;;;;17.23;11.55;;;5.90;99.90;;;;;;5035941;28;20025;-73
2021/12/21 13:09:07;;;;;;;21.33;11.32;;;5.90;99.90;;;;;;5035846;28;20021;-73
2021/12/21 13:11:35;;;;;;;18.23;11.88;;;5.90;99.90;;;;;;5036403;28;20561;-72
2021/12/21 13:14:01;;;;;;;19.33;10.90;;;5.90;99.90;;;;;;5035859;28;20029;-72
2021/12/21 13:16:28;;;;;;;17.25;9.93;;;6.00;99.90;;;;;;5034899;28;20030;-73
2021/12/21 13:18:57;;;;;;;19.90;10.88;;;6.00;99.90;;;;;;5035702;28;20021;-72
2021/12/21 13:21:29;;;;;;;16.00;9.48;;;6.00;99.90;;;;;;5036226;28;20022;-73
2021/12/21 13:24:12;;;;;;;16.05;9.02;;;6.00;99.90;;;;;;5035573;28;20474;-72
2021/12/21 13:26:45;;;;;;;16.55;10.07;;;6.10;99.90;;;;;;5035921;28;20100;-73
2021/12/21 13:29:14;;;;;;;19.63;9.50;;;6.20;99.90;;;;;;5035120;28;20045;-72
2021/12/21 13:31:40;;;;;;;19.20;9.70;;;6.20;99.90;;;;;;5035467;28;20025;-72
2021/12/21 13:34:06;;;;;;;16.05;9.10;;;6.20;99.90;;;;;;5035591;28;20021;-73
2021/12/21 13:36:34;;;;;;;16.13;8.90;;;6.20;99.90;;;;;;5035616;28;20112;-72
2021/12/21 13:39:13;;;;;;;16.35;10.63;;;6.20;99.90;;;;;;5035251;28;20377;-72
2021/12/21 13:42:19;;;;;;;14.45;8.73;;;6.20;99.90;;;;;;5035418;28;20030;-73
2021/12/21 13:44:47;;;;;;;16.25;8.90;;;6.30;99.90;;;;;;5034701;28;20034;-72
2021/12/21 13:47:24;;;;;;;17.35;9.30;;;6.20;99.90;;;;;;5053422;28;20029;-73
2021/12/21 13:50:04;;;;;;;17.60;10.27;;;6.20;99.90;;;;;;5053388;28;20096;-72
2021/12/21 13:52:35;;;;;;;17.27;10.55;;;6.20;99.90;;;;;;5055218;28;20393;-73
2021/12/21 13:55:03;;;;;;;17.83;9.75;;;6.20;99.90;;;;;;5054991;28;20504;-72
2021/12/21 13:57:28;;;;;;;19.05;10.55;;;6.20;99.90;;;;;;5054878;28;20033;-72